sensor_id;sensor_type;location;lat;lon;timestamp;pressure;altitude;pressure_sealevel;temperature;humidity
66560;BME280;53413;49.878;8.142;2023-08-20T00:00:25;100309.69;;;22.29;100.00
66560;BME280;53413;49.878;8.142;2023-08-20T00:02:58;100306.06;;;22.30;100.00
66560;BME280;53413;49.878;8.142;2023-08-20T00:05:26;100307.16;;;22.28;100.00
66560;BME280;53413;49.878;8.142;2023-08-20T00:07:52;100310.81;;;22.27;100.00
66560;BME280;53413;49.878;8.142;2023-08-20T00:10:17;100310.09;;;22.25;100.00
66560;BME280;53413;49.878;8.142;2023-08-20T00:12:43;100310.22;;;22.23;100.00
66560;BME280;53413;49.878;8.142;2023-08-20T00:15:08;100307.94;;;22.19;100.00
66560;BME280;53413;49.878;8.142;2023-08-20T00:17:39;100302.94;;;22.14;100.00
66560;BME280;53413;49.878;8.142;2023-08-20T00:20:07;100314.97;;;22.08;100.00
66560;BME280;53413;49.878;8.142;2023-08-20T00:22:40;100313.66;;;22.03;100.00
66560;BME280;53413;49.878;8.142;2023-08-20T00:25:11;100311.38;;;21.98;100.00
66560;BME280;53413;49.878;8.142;2023-08-20T00:27:37;100313.47;;;21.94;100.00
66560;BME280;53413;49.878;8.142;2023-08-20T00:30:02;100318.19;;;21.91;100.00
66560;BME280;53413;49.878;8.142;2023-08-20T00:32:29;100312.66;;;21.82;100.00
66560;BME280;53413;49.878;8.142;2023-08-20T00:34:54;100320.28;;;21.76;100.00
66560;BME280;53413;49.878;8.142;2023-08-20T00:37:19;100316.41;;;21.68;100.00
66560;BME280;53413;49.878;8.142;2023-08-20T00:39:45;100326.72;;;21.62;100.00
66560;BME280;53413;49.878;8.142;2023-08-20T00:42:10;100330.81;;;21.55;100.00
66560;BME280;53413;49.878;8.142;2023-08-20T00:44:38;100324.03;;;21.50;100.00
66560;BME280;53413;49.878;8.142;2023-08-20T00:47:06;100324.25;;;21.47;100.00
66560;BME280;53413;49.878;8.142;2023-08-20T00:49:31;100330.09;;;21.41;100.00
66560;BME280;53413;49.878;8.142;2023-08-20T00:54:23;100332.75;;;21.30;100.00
66560;BME280;53413;49.878;8.142;2023-08-20T00:56:49;100321.59;;;21.25;100.00
66560;BME280;53413;49.878;8.142;2023-08-20T00:59:15;100318.56;;;21.18;100.00
66560;BME280;53413;49.878;8.142;2023-08-20T01:01:41;100317.22;;;21.12;100.00
66560;BME280;53413;49.878;8.142;2023-08-20T01:04:06;100310.81;;;21.03;100.00
66560;BME280;53413;49.878;8.142;2023-08-20T01:09:16;100314.16;;;20.83;100.00
66560;BME280;53413;49.878;8.142;2023-08-20T01:11:51;100306.97;;;20.72;100.00
66560;BME280;53413;49.878;8.142;2023-08-20T01:14:17;100299.78;;;20.61;100.00
66560;BME280;53413;49.878;8.142;2023-08-20T01:16:44;100303.03;;;20.53;100.00
66560;BME280;53413;49.878;8.142;2023-08-20T01:19:12;100300.94;;;20.45;100.00
66560;BME280;53413;49.878;8.142;2023-08-20T01:30:12;100304.53;;;20.09;100.00
66560;BME280;53413;49.878;8.142;2023-08-20T01:32:38;100313.22;;;19.99;100.00
66560;BME280;53413;49.878;8.142;2023-08-20T01:35:16;100322.50;;;19.94;100.00
66560;BME280;53413;49.878;8.142;2023-08-20T01:37:42;100329.09;;;19.88;100.00
66560;BME280;53413;49.878;8.142;2023-08-20T01:40:08;100329.50;;;19.82;100.00
66560;BME280;53413;49.878;8.142;2023-08-20T01:42:38;100335.28;;;19.76;100.00
66560;BME280;53413;49.878;8.142;2023-08-20T01:45:05;100334.00;;;19.68;100.00
66560;BME280;53413;49.878;8.142;2023-08-20T01:47:31;100338.81;;;19.63;100.00
66560;BME280;53413;49.878;8.142;2023-08-20T01:49:56;100334.66;;;19.59;100.00
66560;BME280;53413;49.878;8.142;2023-08-20T01:52:22;100341.25;;;19.53;100.00
66560;BME280;53413;49.878;8.142;2023-08-20T01:54:48;100340.84;;;19.47;100.00
66560;BME280;53413;49.878;8.142;2023-08-20T01:57:14;100350.72;;;19.45;100.00
66560;BME280;53413;49.878;8.142;2023-08-20T01:59:39;100354.44;;;19.42;100.00
66560;BME280;53413;49.878;8.142;2023-08-20T02:02:05;100359.88;;;19.41;100.00
66560;BME280;53413;49.878;8.142;2023-08-20T02:04:31;100362.75;;;19.37;100.00
66560;BME280;53413;49.878;8.142;2023-08-20T02:06:57;100358.59;;;19.33;100.00
66560;BME280;53413;49.878;8.142;2023-08-20T02:09:22;100359.66;;;19.31;100.00
66560;BME280;53413;49.878;8.142;2023-08-20T02:11:47;100359.78;;;19.29;100.00
66560;BME280;53413;49.878;8.142;2023-08-20T02:14:13;100361.56;;;19.29;100.00
66560;BME280;53413;49.878;8.142;2023-08-20T02:16:38;100358.09;;;19.28;100.00
66560;BME280;53413;49.878;8.142;2023-08-20T02:19:03;100361.69;;;19.27;100.00
66560;BME280;53413;49.878;8.142;2023-08-20T02:21:30;100359.13;;;19.26;100.00
66560;BME280;53413;49.878;8.142;2023-08-20T02:23:56;100352.97;;;19.25;100.00
66560;BME280;53413;49.878;8.142;2023-08-20T02:26:21;100354.69;;;19.26;100.00
66560;BME280;53413;49.878;8.142;2023-08-20T02:28:46;100355.63;;;19.25;100.00
66560;BME280;53413;49.878;8.142;2023-08-20T02:31:12;100356.69;;;19.22;100.00
66560;BME280;53413;49.878;8.142;2023-08-20T02:33:37;100350.84;;;19.17;100.00
66560;BME280;53413;49.878;8.142;2023-08-20T02:36:03;100354.66;;;19.13;100.00
66560;BME280;53413;49.878;8.142;2023-08-20T02:38:29;100350.63;;;19.07;100.00
66560;BME280;53413;49.878;8.142;2023-08-20T02:40:55;100363.25;;;19.04;100.00
66560;BME280;53413;49.878;8.142;2023-08-20T02:43:20;100358.28;;;18.99;100.00
66560;BME280;53413;49.878;8.142;2023-08-20T02:45:45;100361.13;;;18.96;100.00
66560;BME280;53413;49.878;8.142;2023-08-20T02:48:11;100363.97;;;18.93;100.00
66560;BME280;53413;49.878;8.142;2023-08-20T02:50:37;100363.13;;;18.92;100.00
66560;BME280;53413;49.878;8.142;2023-08-20T02:53:03;100357.06;;;18.90;100.00
66560;BME280;53413;49.878;8.142;2023-08-20T02:55:29;100350.91;;;18.90;100.00
66560;BME280;53413;49.878;8.142;2023-08-20T02:57:55;100346.53;;;18.89;100.00
66560;BME280;53413;49.878;8.142;2023-08-20T03:00:20;100358.13;;;18.88;100.00
66560;BME280;53413;49.878;8.142;2023-08-20T03:02:45;100356.63;;;18.84;100.00
66560;BME280;53413;49.878;8.142;2023-08-20T03:05:11;100354.19;;;18.81;100.00
66560;BME280;53413;49.878;8.142;2023-08-20T03:07:36;100345.47;;;18.79;100.00
66560;BME280;53413;49.878;8.142;2023-08-20T03:10:02;100346.41;;;18.77;100.00
66560;BME280;53413;49.878;8.142;2023-08-20T03:12:28;100351.84;;;18.76;100.00
66560;BME280;53413;49.878;8.142;2023-08-20T03:14:53;100351.72;;;18.77;100.00
66560;BME280;53413;49.878;8.142;2023-08-20T03:17:19;100342.91;;;18.77;100.00
66560;BME280;53413;49.878;8.142;2023-08-20T03:19:58;100343.78;;;18.77;100.00
66560;BME280;53413;49.878;8.142;2023-08-20T03:22:24;100349.91;;;18.78;100.00
66560;BME280;53413;49.878;8.142;2023-08-20T03:24:51;100355.22;;;18.78;100.00
66560;BME280;53413;49.878;8.142;2023-08-20T03:27:17;100351.72;;;18.77;100.00
66560;BME280;53413;49.878;8.142;2023-08-20T03:29:43;100352.47;;;18.80;100.00
66560;BME280;53413;49.878;8.142;2023-08-20T03:32:09;100351.41;;;18.82;100.00
66560;BME280;53413;49.878;8.142;2023-08-20T03:34:35;100351.09;;;18.87;100.00
66560;BME280;53413;49.878;8.142;2023-08-20T03:37:01;100351.00;;;18.88;100.00
66560;BME280;53413;49.878;8.142;2023-08-20T03:39:26;100354.50;;;18.89;100.00
66560;BME280;53413;49.878;8.142;2023-08-20T03:41:52;100357.38;;;18.86;100.00
66560;BME280;53413;49.878;8.142;2023-08-20T03:44:17;100357.56;;;18.83;100.00
66560;BME280;53413;49.878;8.142;2023-08-20T03:46:43;100357.56;;;18.83;100.00
66560;BME280;53413;49.878;8.142;2023-08-20T03:49:08;100356.63;;;18.84;100.00
66560;BME280;53413;49.878;8.142;2023-08-20T03:51:34;100363.75;;;18.83;100.00
66560;BME280;53413;49.878;8.142;2023-08-20T03:53:59;100366.50;;;18.82;100.00
66560;BME280;53413;49.878;8.142;2023-08-20T03:56:24;100365.66;;;18.81;100.00
66560;BME280;53413;49.878;8.142;2023-08-20T03:58:50;100368.19;;;18.83;100.00
66560;BME280;53413;49.878;8.142;2023-08-20T04:01:15;100361.19;;;18.82;100.00
66560;BME280;53413;49.878;8.142;2023-08-20T04:03:40;100366.50;;;18.82;100.00
66560;BME280;53413;49.878;8.142;2023-08-20T04:06:06;100371.72;;;18.83;100.00
66560;BME280;53413;49.878;8.142;2023-08-20T04:08:32;100374.06;;;18.88;100.00
66560;BME280;53413;49.878;8.142;2023-08-20T04:10:57;100381.66;;;18.94;100.00
66560;BME280;53413;49.878;8.142;2023-08-20T04:13:23;100385.78;;;18.98;100.00
66560;BME280;53413;49.878;8.142;2023-08-20T04:15:48;100384.50;;;19.04;100.00
66560;BME280;53413;49.878;8.142;2023-08-20T04:18:13;100381.66;;;19.07;100.00
66560;BME280;53413;49.878;8.142;2023-08-20T04:20:39;100386.84;;;19.08;100.00
66560;BME280;53413;49.878;8.142;2023-08-20T04:23:04;100388.56;;;19.10;100.00
66560;BME280;53413;49.878;8.142;2023-08-20T04:25:29;100389.50;;;19.08;100.00
66560;BME280;53413;49.878;8.142;2023-08-20T04:27:55;100392.06;;;19.10;100.00
66560;BME280;53413;49.878;8.142;2023-08-20T04:30:20;100387.41;;;19.14;100.00
66560;BME280;53413;49.878;8.142;2023-08-20T04:32:46;100381.88;;;19.17;100.00
66560;BME280;53413;49.878;8.142;2023-08-20T04:35:11;100386.97;;;19.20;100.00
66560;BME280;53413;49.878;8.142;2023-08-20T04:37:36;100382.94;;;19.27;100.00
66560;BME280;53413;49.878;8.142;2023-08-20T04:40:02;100381.69;;;19.33;100.00
66560;BME280;53413;49.878;8.142;2023-08-20T04:42:30;100381.22;;;19.39;100.00
66560;BME280;53413;49.878;8.142;2023-08-20T04:44:56;100386.13;;;19.45;100.00
66560;BME280;53413;49.878;8.142;2023-08-20T04:47:21;100383.16;;;19.50;100.00
66560;BME280;53413;49.878;8.142;2023-08-20T04:49:46;100391.44;;;19.58;100.00
66560;BME280;53413;49.878;8.142;2023-08-20T04:52:12;100388.25;;;19.66;100.00
66560;BME280;53413;49.878;8.142;2023-08-20T04:54:37;100391.63;;;19.81;100.00
66560;BME280;53413;49.878;8.142;2023-08-20T04:57:02;100401.00;;;19.99;100.00
66560;BME280;53413;49.878;8.142;2023-08-20T04:59:28;100395.06;;;20.20;100.00
66560;BME280;53413;49.878;8.142;2023-08-20T05:01:54;100397.09;;;20.41;100.00
66560;BME280;53413;49.878;8.142;2023-08-20T05:04:19;100395.84;;;20.58;100.00
66560;BME280;53413;49.878;8.142;2023-08-20T05:06:45;100399.94;;;20.75;100.00
66560;BME280;53413;49.878;8.142;2023-08-20T05:09:10;100402.69;;;20.86;100.00
66560;BME280;53413;49.878;8.142;2023-08-20T05:11:36;100397.63;;;20.95;100.00
66560;BME280;53413;49.878;8.142;2023-08-20T05:14:01;100396.47;;;21.10;100.00
66560;BME280;53413;49.878;8.142;2023-08-20T05:16:26;100391.84;;;21.23;100.00
66560;BME280;53413;49.878;8.142;2023-08-20T05:18:52;100394.91;;;21.42;100.00
66560;BME280;53413;49.878;8.142;2023-08-20T05:21:17;100393.72;;;21.57;100.00
66560;BME280;53413;49.878;8.142;2023-08-20T05:23:42;100400.19;;;21.77;100.00
66560;BME280;53413;49.878;8.142;2023-08-20T05:26:08;100383.31;;;21.99;100.00
66560;BME280;53413;49.878;8.142;2023-08-20T05:28:34;100394.53;;;22.26;100.00
66560;BME280;53413;49.878;8.142;2023-08-20T05:30:59;100396.94;;;22.52;100.00
66560;BME280;53413;49.878;8.142;2023-08-20T05:33:25;100395.53;;;22.69;100.00
66560;BME280;53413;49.878;8.142;2023-08-20T05:35:51;100399.19;;;22.89;100.00
66560;BME280;53413;49.878;8.142;2023-08-20T05:38:16;100399.06;;;23.12;100.00
66560;BME280;53413;49.878;8.142;2023-08-20T05:40:42;100406.97;;;23.34;100.00
66560;BME280;53413;49.878;8.142;2023-08-20T05:43:07;100400.88;;;23.54;100.00
66560;BME280;53413;49.878;8.142;2023-08-20T05:45:33;100407.03;;;23.75;100.00
66560;BME280;53413;49.878;8.142;2023-08-20T05:47:58;100407.97;;;23.95;100.00
66560;BME280;53413;49.878;8.142;2023-08-20T05:50:24;100412.78;;;24.02;100.00
66560;BME280;53413;49.878;8.142;2023-08-20T05:52:49;100403.66;;;24.14;100.00
66560;BME280;53413;49.878;8.142;2023-08-20T05:55:15;100407.31;;;24.13;100.00
66560;BME280;53413;49.878;8.142;2023-08-20T05:57:41;100408.69;;;23.97;100.00
66560;BME280;53413;49.878;8.142;2023-08-20T06:00:09;100416.50;;;23.89;100.00
66560;BME280;53413;49.878;8.142;2023-08-20T06:02:34;100405.13;;;23.87;100.00
66560;BME280;53413;49.878;8.142;2023-08-20T06:05:00;100405.78;;;23.89;100.00
66560;BME280;53413;49.878;8.142;2023-08-20T06:07:25;100407.16;;;24.05;100.00
66560;BME280;53413;49.878;8.142;2023-08-20T06:09:50;100408.59;;;24.09;100.00
66560;BME280;53413;49.878;8.142;2023-08-20T06:12:16;100403.69;;;24.24;100.00
66560;BME280;53413;49.878;8.142;2023-08-20T06:14:42;100408.41;;;25.58;100.00
66560;BME280;53413;49.878;8.142;2023-08-20T06:17:07;100405.66;;;29.91;100.00
66560;BME280;53413;49.878;8.142;2023-08-20T06:19:33;100412.59;;;34.43;70.52
66560;BME280;53413;49.878;8.142;2023-08-20T06:21:59;100429.16;;;38.03;53.16
66560;BME280;53413;49.878;8.142;2023-08-20T06:24:24;100431.78;;;40.36;47.85
66560;BME280;53413;49.878;8.142;2023-08-20T06:26:50;100432.56;;;41.34;42.92
66560;BME280;53413;49.878;8.142;2023-08-20T06:29:16;100432.97;;;38.33;46.84
66560;BME280;53413;49.878;8.142;2023-08-20T06:31:41;100431.38;;;35.72;53.88
66560;BME280;53413;49.878;8.142;2023-08-20T06:34:06;100414.88;;;33.84;56.52
66560;BME280;53413;49.878;8.142;2023-08-20T06:36:32;100413.69;;;33.93;57.83
66560;BME280;53413;49.878;8.142;2023-08-20T06:38:57;100420.06;;;38.22;48.54
66560;BME280;53413;49.878;8.142;2023-08-20T06:41:23;100432.31;;;42.02;41.86
66560;BME280;53413;49.878;8.142;2023-08-20T06:43:48;100429.78;;;42.50;39.52
66560;BME280;53413;49.878;8.142;2023-08-20T06:46:14;100436.13;;;40.32;42.07
66560;BME280;53413;49.878;8.142;2023-08-20T06:48:39;100437.38;;;38.03;45.41
66560;BME280;53413;49.878;8.142;2023-08-20T06:51:14;100438.41;;;36.07;48.83
66560;BME280;53413;49.878;8.142;2023-08-20T06:53:41;100436.47;;;35.55;50.74
66560;BME280;53413;49.878;8.142;2023-08-20T06:56:09;100436.97;;;36.43;49.13
66560;BME280;53413;49.878;8.142;2023-08-20T06:58:35;100428.66;;;36.88;48.36
66560;BME280;53413;49.878;8.142;2023-08-20T07:01:01;100429.75;;;35.51;50.99
66560;BME280;53413;49.878;8.142;2023-08-20T07:03:40;100435.91;;;35.06;51.78
66560;BME280;53413;49.878;8.142;2023-08-20T07:06:06;100424.16;;;33.96;54.33
66560;BME280;53413;49.878;8.142;2023-08-20T07:08:32;100430.34;;;35.73;51.01
66560;BME280;53413;49.878;8.142;2023-08-20T07:10:58;100429.31;;;36.84;48.57
66560;BME280;53413;49.878;8.142;2023-08-20T07:13:24;100443.44;;;40.14;43.03
66560;BME280;53413;49.878;8.142;2023-08-20T07:15:49;100431.16;;;43.23;38.47
66560;BME280;53413;49.878;8.142;2023-08-20T07:18:15;100435.53;;;45.69;34.97
66560;BME280;53413;49.878;8.142;2023-08-20T07:20:42;100434.97;;;47.64;31.37
66560;BME280;53413;49.878;8.142;2023-08-20T07:23:08;100447.72;;;49.08;30.08
66560;BME280;53413;49.878;8.142;2023-08-20T07:25:35;100436.06;;;49.98;28.48
66560;BME280;53413;49.878;8.142;2023-08-20T07:28:01;100441.34;;;50.68;27.23
66560;BME280;53413;49.878;8.142;2023-08-20T07:30:27;100439.31;;;51.23;26.56
66560;BME280;53413;49.878;8.142;2023-08-20T07:32:53;100447.63;;;51.81;25.62
66560;BME280;53413;49.878;8.142;2023-08-20T07:35:18;100445.03;;;52.11;25.31
66560;BME280;53413;49.878;8.142;2023-08-20T07:37:44;100433.53;;;52.21;25.10
66560;BME280;53413;49.878;8.142;2023-08-20T07:40:11;100442.06;;;52.33;25.07
66560;BME280;53413;49.878;8.142;2023-08-20T07:42:37;100452.47;;;52.89;24.22
66560;BME280;53413;49.878;8.142;2023-08-20T07:45:02;100452.84;;;53.48;23.70
66560;BME280;53413;49.878;8.142;2023-08-20T07:47:28;100450.53;;;53.50;23.84
66560;BME280;53413;49.878;8.142;2023-08-20T07:49:56;100452.81;;;53.57;23.70
66560;BME280;53413;49.878;8.142;2023-08-20T07:52:22;100449.94;;;54.08;22.95
66560;BME280;53413;49.878;8.142;2023-08-20T07:54:47;100438.94;;;54.36;23.07
66560;BME280;53413;49.878;8.142;2023-08-20T07:57:12;100439.50;;;54.63;22.88
66560;BME280;53413;49.878;8.142;2023-08-20T07:59:38;100429.97;;;54.89;22.34
66560;BME280;53413;49.878;8.142;2023-08-20T08:02:03;100446.28;;;54.87;22.23
66560;BME280;53413;49.878;8.142;2023-08-20T08:04:29;100436.69;;;55.50;21.73
66560;BME280;53413;49.878;8.142;2023-08-20T08:06:54;100442.94;;;55.84;21.51
66560;BME280;53413;49.878;8.142;2023-08-20T08:09:28;100436.47;;;56.12;21.07
66560;BME280;53413;49.878;8.142;2023-08-20T08:11:54;100433.16;;;56.51;20.73
66560;BME280;53413;49.878;8.142;2023-08-20T08:14:19;100437.78;;;56.59;20.95
66560;BME280;53413;49.878;8.142;2023-08-20T08:16:45;100428.75;;;56.21;21.41
66560;BME280;53413;49.878;8.142;2023-08-20T08:19:11;100427.16;;;56.84;20.51
66560;BME280;53413;49.878;8.142;2023-08-20T08:21:37;100429.75;;;57.25;20.48
66560;BME280;53413;49.878;8.142;2023-08-20T08:24:02;100435.03;;;57.11;20.48
66560;BME280;53413;49.878;8.142;2023-08-20T08:26:28;100442.03;;;57.53;19.67
66560;BME280;53413;49.878;8.142;2023-08-20T08:28:54;100437.56;;;57.71;19.38
66560;BME280;53413;49.878;8.142;2023-08-20T08:31:19;100436.84;;;57.74;19.35
66560;BME280;53413;49.878;8.142;2023-08-20T08:33:44;100435.75;;;57.79;19.49
66560;BME280;53413;49.878;8.142;2023-08-20T08:36:10;100440.84;;;57.73;19.17
66560;BME280;53413;49.878;8.142;2023-08-20T08:38:36;100438.31;;;57.48;19.38
66560;BME280;53413;49.878;8.142;2023-08-20T08:41:03;100443.88;;;57.45;19.74
66560;BME280;53413;49.878;8.142;2023-08-20T08:43:32;100438.03;;;58.13;19.36
66560;BME280;53413;49.878;8.142;2023-08-20T08:45:58;100433.53;;;58.08;19.22
66560;BME280;53413;49.878;8.142;2023-08-20T08:48:25;100435.28;;;58.16;18.95
66560;BME280;53413;49.878;8.142;2023-08-20T08:50:51;100437.28;;;57.96;19.28
66560;BME280;53413;49.878;8.142;2023-08-20T08:53:17;100428.25;;;58.53;18.78
66560;BME280;53413;49.878;8.142;2023-08-20T08:55:43;100426.28;;;59.04;18.47
66560;BME280;53413;49.878;8.142;2023-08-20T08:58:08;100431.19;;;59.34;18.19
66560;BME280;53413;49.878;8.142;2023-08-20T09:00:33;100438.00;;;58.79;18.27
66560;BME280;53413;49.878;8.142;2023-08-20T09:02:59;100437.50;;;58.73;18.25
66560;BME280;53413;49.878;8.142;2023-08-20T09:05:25;100437.63;;;59.34;18.36
66560;BME280;53413;49.878;8.142;2023-08-20T09:07:56;100438.13;;;59.13;17.77
66560;BME280;53413;49.878;8.142;2023-08-20T09:10:25;100432.59;;;59.20;18.39
66560;BME280;53413;49.878;8.142;2023-08-20T09:12:54;100430.50;;;59.44;17.86
66560;BME280;53413;49.878;8.142;2023-08-20T09:15:19;100429.75;;;59.81;17.66
66560;BME280;53413;49.878;8.142;2023-08-20T09:17:46;100430.00;;;60.03;17.70
66560;BME280;53413;49.878;8.142;2023-08-20T09:20:11;100433.84;;;60.21;17.74
66560;BME280;53413;49.878;8.142;2023-08-20T09:22:37;100433.22;;;60.43;17.20
66560;BME280;53413;49.878;8.142;2023-08-20T09:25:03;100438.72;;;60.25;17.35
66560;BME280;53413;49.878;8.142;2023-08-20T09:27:29;100436.50;;;59.73;17.37
66560;BME280;53413;49.878;8.142;2023-08-20T09:29:55;100436.59;;;59.19;17.48
66560;BME280;53413;49.878;8.142;2023-08-20T09:32:24;100429.47;;;58.98;17.48
66560;BME280;53413;49.878;8.142;2023-08-20T09:34:52;100432.16;;;58.45;17.77
66560;BME280;53413;49.878;8.142;2023-08-20T09:37:22;100423.34;;;58.03;18.23
66560;BME280;53413;49.878;8.142;2023-08-20T09:39:48;100427.41;;;58.06;18.31
66560;BME280;53413;49.878;8.142;2023-08-20T09:42:14;100429.88;;;57.88;18.41
66560;BME280;53413;49.878;8.142;2023-08-20T09:44:41;100429.72;;;57.61;18.79
66560;BME280;53413;49.878;8.142;2023-08-20T09:47:12;100425.06;;;57.33;19.14
66560;BME280;53413;49.878;8.142;2023-08-20T09:52:06;100418.78;;;55.95;19.33
66560;BME280;53413;49.878;8.142;2023-08-20T09:57:00;100419.59;;;54.68;20.36
66560;BME280;53413;49.878;8.142;2023-08-20T09:59:27;100412.56;;;54.50;21.14
66560;BME280;53413;49.878;8.142;2023-08-20T10:01:54;100409.53;;;54.09;19.84
66560;BME280;53413;49.878;8.142;2023-08-20T10:04:20;100411.97;;;53.47;20.28
66560;BME280;53413;49.878;8.142;2023-08-20T10:06:46;100409.03;;;53.43;20.42
66560;BME280;53413;49.878;8.142;2023-08-20T10:09:11;100405.78;;;52.63;20.88
66560;BME280;53413;49.878;8.142;2023-08-20T10:11:39;100411.56;;;53.06;21.52
66560;BME280;53413;49.878;8.142;2023-08-20T10:14:05;100413.41;;;52.45;21.51
66560;BME280;53413;49.878;8.142;2023-08-20T10:16:32;100404.94;;;50.73;22.32
66560;BME280;53413;49.878;8.142;2023-08-20T10:19:02;100404.06;;;47.90;24.20
66560;BME280;53413;49.878;8.142;2023-08-20T10:21:28;100399.16;;;45.20;27.76
66560;BME280;53413;49.878;8.142;2023-08-20T10:23:53;100411.63;;;43.30;30.00
66560;BME280;53413;49.878;8.142;2023-08-20T10:26:20;100399.91;;;41.60;31.95
66560;BME280;53413;49.878;8.142;2023-08-20T10:28:47;100411.47;;;40.37;34.36
66560;BME280;53413;49.878;8.142;2023-08-20T10:31:13;100413.25;;;39.09;35.84
66560;BME280;53413;49.878;8.142;2023-08-20T10:33:49;100413.34;;;37.87;38.48
66560;BME280;53413;49.878;8.142;2023-08-20T10:36:15;100420.00;;;37.17;38.43
66560;BME280;53413;49.878;8.142;2023-08-20T10:38:44;100414.97;;;36.63;40.30
66560;BME280;53413;49.878;8.142;2023-08-20T10:41:10;100412.19;;;36.44;39.85
66560;BME280;53413;49.878;8.142;2023-08-20T10:43:40;100418.66;;;36.11;40.66
66560;BME280;53413;49.878;8.142;2023-08-20T10:48:39;100411.97;;;35.21;41.92
66560;BME280;53413;49.878;8.142;2023-08-20T10:53:40;100419.13;;;34.95;42.65
66560;BME280;53413;49.878;8.142;2023-08-20T10:56:16;100415.13;;;34.78;42.62
66560;BME280;53413;49.878;8.142;2023-08-20T10:58:45;100415.75;;;34.66;42.38
66560;BME280;53413;49.878;8.142;2023-08-20T11:01:15;100422.44;;;34.71;44.98
66560;BME280;53413;49.878;8.142;2023-08-20T11:03:43;100413.44;;;34.63;43.34
66560;BME280;53413;49.878;8.142;2023-08-20T11:06:10;100408.63;;;34.59;43.52
66560;BME280;53413;49.878;8.142;2023-08-20T11:08:36;100410.31;;;34.66;43.70
66560;BME280;53413;49.878;8.142;2023-08-20T11:11:01;100408.00;;;34.63;43.68
66560;BME280;53413;49.878;8.142;2023-08-20T11:13:31;100407.97;;;34.43;43.97
66560;BME280;53413;49.878;8.142;2023-08-20T11:15:57;100403.78;;;34.41;44.86
66560;BME280;53413;49.878;8.142;2023-08-20T11:18:24;100406.44;;;34.20;45.53
66560;BME280;53413;49.878;8.142;2023-08-20T11:20:50;100414.59;;;34.20;46.47
66560;BME280;53413;49.878;8.142;2023-08-20T11:23:15;100403.69;;;34.07;46.55
66560;BME280;53413;49.878;8.142;2023-08-20T11:25:42;100413.72;;;34.06;46.69
66560;BME280;53413;49.878;8.142;2023-08-20T11:28:08;100407.88;;;34.10;46.72
66560;BME280;53413;49.878;8.142;2023-08-20T11:30:34;100412.09;;;34.19;46.52
66560;BME280;53413;49.878;8.142;2023-08-20T11:33:00;100414.78;;;34.12;45.84
66560;BME280;53413;49.878;8.142;2023-08-20T11:35:25;100411.19;;;34.05;45.96
66560;BME280;53413;49.878;8.142;2023-08-20T11:37:52;100410.59;;;34.03;45.78
66560;BME280;53413;49.878;8.142;2023-08-20T11:40:20;100402.75;;;33.86;46.58
66560;BME280;53413;49.878;8.142;2023-08-20T11:42:46;100403.78;;;33.85;46.37
66560;BME280;53413;49.878;8.142;2023-08-20T11:45:11;100409.91;;;33.87;46.89
66560;BME280;53413;49.878;8.142;2023-08-20T11:47:40;100403.41;;;33.88;46.69
66560;BME280;53413;49.878;8.142;2023-08-20T11:50:07;100403.41;;;33.88;47.59
66560;BME280;53413;49.878;8.142;2023-08-20T11:52:33;100404.91;;;33.98;47.49
66560;BME280;53413;49.878;8.142;2023-08-20T11:55:00;100408.28;;;34.00;48.06
66560;BME280;53413;49.878;8.142;2023-08-20T11:57:25;100409.53;;;34.11;47.76
66560;BME280;53413;49.878;8.142;2023-08-20T11:59:51;100405.59;;;34.13;47.30
66560;BME280;53413;49.878;8.142;2023-08-20T12:02:25;100404.09;;;33.97;47.45
66560;BME280;53413;49.878;8.142;2023-08-20T12:04:50;100405.97;;;34.03;48.34
66560;BME280;53413;49.878;8.142;2023-08-20T12:07:16;100398.84;;;34.02;47.06
66560;BME280;53413;49.878;8.142;2023-08-20T12:09:42;100407.25;;;34.07;48.12
66560;BME280;53413;49.878;8.142;2023-08-20T12:12:08;100402.84;;;34.06;47.85
66560;BME280;53413;49.878;8.142;2023-08-20T12:14:34;100402.63;;;34.01;47.90
66560;BME280;53413;49.878;8.142;2023-08-20T12:17:00;100399.06;;;33.94;47.11
66560;BME280;53413;49.878;8.142;2023-08-20T12:19:26;100391.53;;;33.96;46.80
66560;BME280;53413;49.878;8.142;2023-08-20T12:21:51;100389.97;;;33.87;46.25
66560;BME280;53413;49.878;8.142;2023-08-20T12:24:17;100385.13;;;33.75;46.55
66560;BME280;53413;49.878;8.142;2023-08-20T12:26:44;100385.13;;;33.75;48.00
66560;BME280;53413;49.878;8.142;2023-08-20T12:29:10;100388.09;;;33.81;45.48
66560;BME280;53413;49.878;8.142;2023-08-20T12:31:35;100379.09;;;33.80;44.65
66560;BME280;53413;49.878;8.142;2023-08-20T12:34:01;100381.81;;;33.87;46.69
66560;BME280;53413;49.878;8.142;2023-08-20T12:36:27;100383.13;;;33.91;44.85
66560;BME280;53413;49.878;8.142;2023-08-20T12:38:53;100378.75;;;33.90;44.57
66560;BME280;53413;49.878;8.142;2023-08-20T12:41:19;100377.69;;;33.91;45.91
66560;BME280;53413;49.878;8.142;2023-08-20T12:43:45;100377.31;;;34.01;46.69
66560;BME280;53413;49.878;8.142;2023-08-20T12:46:10;100369.38;;;34.06;45.76
66560;BME280;53413;49.878;8.142;2023-08-20T12:48:37;100368.97;;;34.09;47.95
66560;BME280;53413;49.878;8.142;2023-08-20T12:51:02;100370.63;;;34.03;45.62
66560;BME280;53413;49.878;8.142;2023-08-20T12:53:28;100368.09;;;33.95;43.64
66560;BME280;53413;49.878;8.142;2023-08-20T12:55:53;100366.81;;;33.91;44.39
66560;BME280;53413;49.878;8.142;2023-08-20T12:58:19;100360.34;;;33.92;44.22
66560;BME280;53413;49.878;8.142;2023-08-20T13:00:45;100363.50;;;33.96;45.48
66560;BME280;53413;49.878;8.142;2023-08-20T13:03:12;100359.53;;;34.05;45.89